Time;durP1;ratioP1;P1;durP2;ratioP2;P2;SDS_P1;SDS_P2;PMS_P1;PMS_P2;Temp;Humidity;BMP_temperature;BMP_pressure;BME280_temperature;BME280_humidity;BME280_pressure;Samples;Min_cycle;Max_cycle;Signal;HPM_P1;HPM_P2
2022/04/09 00:02:05;;;;;;;9.85;2.35;;;1.30;99.90;;;;;;5048896;28;20761;-88
2022/04/09 00:04:33;;;;;;;12.88;2.33;;;1.30;99.90;;;;;;5070362;28;20461;-87
2022/04/09 00:07:01;;;;;;;12.07;2.10;;;1.30;99.90;;;;;;5076512;28;20479;-86
2022/04/09 00:09:29;;;;;;;10.77;1.65;;;1.20;99.90;;;;;;5056572;28;20386;-87
2022/04/09 00:11:56;;;;;;;12.80;2.13;;;1.30;99.90;;;;;;5064246;28;20380;-87
2022/04/09 00:14:24;;;;;;;10.00;1.70;;;1.20;99.90;;;;;;5076368;28;20445;-86
2022/04/09 00:16:52;;;;;;;12.73;2.30;;;1.20;99.90;;;;;;5089225;28;20376;-88
2022/04/09 00:19:20;;;;;;;12.50;2.33;;;1.20;99.90;;;;;;5076364;28;20388;-87
2022/04/09 00:21:47;;;;;;;10.30;2.50;;;1.30;99.90;;;;;;5076893;28;20381;-87
2022/04/09 00:24:16;;;;;;;12.75;2.40;;;1.20;99.90;;;;;;5091907;28;20397;-87
2022/04/09 00:26:43;;;;;;;12.43;2.17;;;1.20;99.90;;;;;;5094108;28;20738;-87
2022/04/09 00:29:11;;;;;;;9.68;2.15;;;1.10;99.90;;;;;;5076694;28;20403;-88
2022/04/09 00:31:39;;;;;;;11.40;2.25;;;1.10;99.90;;;;;;5059997;28;20385;-87
2022/04/09 00:34:06;;;;;;;9.25;2.00;;;1.10;99.90;;;;;;5080218;28;20418;-87
2022/04/09 00:36:34;;;;;;;9.40;2.33;;;1.00;99.90;;;;;;5076856;28;20430;-86
2022/04/09 00:39:02;;;;;;;10.20;2.15;;;1.00;99.90;;;;;;5059684;28;20469;-86
2022/04/09 00:41:30;;;;;;;9.55;2.00;;;1.00;99.90;;;;;;5076603;28;20458;-87
2022/04/09 00:43:57;;;;;;;8.50;2.03;;;0.80;99.90;;;;;;5076542;28;20500;-86
2022/04/09 00:46:25;;;;;;;8.55;2.08;;;0.90;99.90;;;;;;5059771;28;20384;-88
2022/04/09 00:48:53;;;;;;;10.18;2.10;;;0.90;99.90;;;;;;5059692;28;20477;-88
2022/04/09 00:51:20;;;;;;;11.05;2.03;;;0.90;99.90;;;;;;5076511;28;20388;-87
2022/04/09 00:53:51;;;;;;;10.75;2.00;;;0.80;99.90;;;;;;5094202;28;20412;-87
2022/04/09 00:56:22;;;;;;;13.77;2.20;;;0.80;99.90;;;;;;5046261;28;20402;-87
2022/04/09 00:58:54;;;;;;;10.90;2.10;;;0.80;99.90;;;;;;5088553;28;20392;-87
2022/04/09 01:01:36;;;;;;;10.43;2.40;;;0.80;99.90;;;;;;5059042;28;20406;-87
2022/04/09 01:04:11;;;;;;;8.35;1.80;;;0.80;99.90;;;;;;5073496;28;20412;-87
2022/04/09 01:06:39;;;;;;;9.43;1.90;;;0.90;99.90;;;;;;5075432;28;20871;-87
2022/04/09 01:09:08;;;;;;;10.43;2.35;;;0.90;99.90;;;;;;5058898;28;20385;-87
2022/04/09 01:11:39;;;;;;;11.43;2.17;;;0.90;99.90;;;;;;5069671;28;20930;-86
2022/04/09 01:14:10;;;;;;;9.50;2.10;;;0.90;99.90;;;;;;5058665;28;20382;-88
2022/04/09 01:16:37;;;;;;;14.18;2.90;;;0.90;99.90;;;;;;5055363;28;20485;-87
2022/04/09 01:19:05;;;;;;;9.02;2.50;;;0.90;99.90;;;;;;5041739;28;20386;-87
2022/04/09 01:21:39;;;;;;;9.98;2.90;;;0.90;99.90;;;;;;5062922;28;20382;-87
2022/04/09 01:24:08;;;;;;;10.27;2.85;;;0.90;99.90;;;;;;5050805;28;20402;-87
2022/04/09 01:26:43;;;;;;;10.00;2.83;;;0.90;99.90;;;;;;5071061;28;20402;-86
2022/04/09 01:29:22;;;;;;;10.60;2.63;;;0.90;99.90;;;;;;5070175;28;20396;-87
2022/04/09 01:31:51;;;;;;;10.88;2.58;;;0.90;99.90;;;;;;5075343;28;20902;-87
2022/04/09 01:34:20;;;;;;;10.25;2.65;;;0.90;99.90;;;;;;5070481;28;20394;-88
2022/04/09 01:36:48;;;;;;;9.82;2.53;;;0.90;99.90;;;;;;5069622;28;20511;-87
2022/04/09 01:39:18;;;;;;;6.82;2.42;;;0.90;99.90;;;;;;5091764;28;20392;-86
2022/04/09 01:41:45;;;;;;;8.43;2.22;;;0.90;99.90;;;;;;5091604;28;20442;-87
2022/04/09 01:44:13;;;;;;;8.30;2.20;;;0.90;99.90;;;;;;5065606;28;20931;-87
2022/04/09 01:46:44;;;;;;;8.03;2.40;;;0.90;99.90;;;;;;5048675;28;20402;-87
2022/04/09 01:49:14;;;;;;;8.50;2.20;;;0.80;99.90;;;;;;5056759;28;20390;-87
2022/04/09 01:51:42;;;;;;;8.77;2.38;;;0.80;99.90;;;;;;5074001;28;20399;-86
2022/04/09 01:54:11;;;;;;;10.55;2.50;;;0.80;99.90;;;;;;5075040;28;20408;-88
2022/04/09 01:56:39;;;;;;;9.15;2.63;;;0.80;99.90;;;;;;5058118;28;20388;-87
2022/04/09 01:59:07;;;;;;;8.40;2.60;;;0.80;99.90;;;;;;5058401;28;20463;-88
2022/04/09 02:01:35;;;;;;;8.02;2.20;;;0.80;99.90;;;;;;5071299;28;20741;-86
2022/04/09 02:04:03;;;;;;;9.35;2.25;;;0.80;99.90;;;;;;5054419;28;20395;-86
2022/04/09 02:06:32;;;;;;;7.45;1.92;;;0.70;99.90;;;;;;5066593;28;20485;-87
2022/04/09 02:09:01;;;;;;;9.33;2.13;;;0.70;99.90;;;;;;5074366;28;20392;-87
2022/04/09 02:11:30;;;;;;;11.55;2.47;;;0.80;99.90;;;;;;5054549;28;20386;-86
2022/04/09 02:13:58;;;;;;;9.27;2.22;;;0.70;99.90;;;;;;5071037;28;20896;-86
2022/04/09 02:16:25;;;;;;;9.82;2.63;;;0.80;99.90;;;;;;5062727;28;20392;-87
2022/04/09 02:18:53;;;;;;;8.97;2.40;;;0.80;99.90;;;;;;5069822;28;20389;-87
2022/04/09 02:21:21;;;;;;;8.15;2.25;;;0.80;99.90;;;;;;5074233;28;20396;-87
2022/04/09 02:23:49;;;;;;;8.95;2.35;;;0.80;99.90;;;;;;5068056;28;20410;-87
2022/04/09 02:26:16;;;;;;;9.98;2.35;;;0.70;99.90;;;;;;5054339;28;20422;-87
2022/04/09 02:28:47;;;;;;;7.43;2.17;;;0.70;99.90;;;;;;5065087;28;20400;-86
2022/04/09 02:31:17;;;;;;;7.80;2.10;;;0.70;99.90;;;;;;5088586;28;20485;-88
2022/04/09 02:33:46;;;;;;;7.53;2.25;;;0.70;99.90;;;;;;5074226;28;20396;-87
2022/04/09 02:36:15;;;;;;;6.80;2.58;;;0.70;99.90;;;;;;5074347;28;20445;-87
2022/04/09 02:38:44;;;;;;;8.68;2.53;;;0.80;99.90;;;;;;5074108;28;20392;-86
2022/04/09 02:41:12;;;;;;;8.20;2.70;;;0.80;99.90;;;;;;5074333;28;20401;-87
2022/04/09 02:43:41;;;;;;;8.70;3.25;;;0.70;99.90;;;;;;5074176;28;20446;-87
2022/04/09 02:46:09;;;;;;;7.75;3.08;;;0.70;99.90;;;;;;5070926;28;20412;-87
2022/04/09 02:48:40;;;;;;;7.25;3.53;;;0.70;99.90;;;;;;5053744;28;20386;-86
2022/04/09 02:51:12;;;;;;;9.93;3.30;;;0.70;99.90;;;;;;5087757;28;20462;-86
2022/04/09 02:53:40;;;;;;;9.32;3.83;;;0.60;99.90;;;;;;5068796;28;20393;-86
2022/04/09 02:56:07;;;;;;;9.13;2.85;;;0.60;99.90;;;;;;5082424;28;20814;-87
2022/04/09 02:58:38;;;;;;;10.82;3.10;;;0.60;99.90;;;;;;5090011;28;20465;-86
2022/04/09 03:01:06;;;;;;;11.93;2.90;;;0.70;99.90;;;;;;5089966;28;20420;-87
2022/04/09 03:03:34;;;;;;;11.20;2.88;;;0.70;99.90;;;;;;5073946;28;20401;-87
2022/04/09 03:06:02;;;;;;;10.07;3.00;;;0.70;99.90;;;;;;5085547;28;20407;-87
2022/04/09 03:08:30;;;;;;;8.40;3.05;;;0.70;99.90;;;;;;5073883;28;20387;-88
2022/04/09 03:10:58;;;;;;;10.47;3.03;;;0.70;99.90;;;;;;5073575;28;20393;-87
2022/04/09 03:13:25;;;;;;;8.77;3.03;;;0.60;99.90;;;;;;5057581;28;20424;-87
2022/04/09 03:15:54;;;;;;;6.70;2.50;;;0.70;99.90;;;;;;5070342;28;20404;-86
2022/04/09 03:18:21;;;;;;;10.07;3.08;;;0.70;99.90;;;;;;5061380;28;20923;-86
2022/04/09 03:20:50;;;;;;;6.88;2.65;;;0.60;99.90;;;;;;5081479;28;20406;-87
2022/04/09 03:23:20;;;;;;;8.60;2.42;;;0.70;99.90;;;;;;5061584;28;20416;-87
2022/04/09 03:25:52;;;;;;;7.75;2.13;;;0.60;99.90;;;;;;5073508;28;20400;-86
2022/04/09 03:28:23;;;;;;;7.40;2.30;;;0.60;99.90;;;;;;5073557;28;20906;-88
2022/04/09 03:30:52;;;;;;;7.22;2.33;;;0.70;99.90;;;;;;5056953;28;20395;-86
2022/04/09 03:33:19;;;;;;;8.05;1.92;;;0.60;99.90;;;;;;5073461;28;20892;-86
2022/04/09 03:35:53;;;;;;;6.75;2.08;;;0.60;99.90;;;;;;5073382;28;20385;-87
2022/04/09 03:38:23;;;;;;;8.53;2.93;;;0.50;99.90;;;;;;5073965;28;20890;-87
2022/04/09 03:40:54;;;;;;;8.75;2.30;;;0.60;99.90;;;;;;5073908;28;20426;-87
2022/04/09 03:43:31;;;;;;;10.15;2.33;;;0.60;99.90;;;;;;5053586;28;20390;-87
2022/04/09 03:45:59;;;;;;;8.07;2.53;;;0.50;99.90;;;;;;5074868;28;20406;-87
2022/04/09 03:48:27;;;;;;;9.25;2.35;;;0.50;99.90;;;;;;5065278;28;20384;-87
2022/04/09 03:50:56;;;;;;;8.97;2.60;;;0.50;99.90;;;;;;5069977;28;20390;-88
2022/04/09 03:53:24;;;;;;;9.63;2.78;;;0.50;99.90;;;;;;5073305;28;20384;-88
2022/04/09 03:55:59;;;;;;;9.13;2.70;;;0.40;99.90;;;;;;5073150;28;20400;-88
2022/04/09 03:58:30;;;;;;;9.80;2.40;;;0.30;99.90;;;;;;5073425;28;20398;-87
2022/04/09 04:00:58;;;;;;;7.03;2.30;;;0.30;99.90;;;;;;5073094;28;20428;-87
2022/04/09 04:03:28;;;;;;;8.40;2.60;;;0.40;99.90;;;;;;5055315;28;20415;-87
2022/04/09 04:05:57;;;;;;;9.87;2.50;;;0.30;99.90;;;;;;5054313;28;20407;-87
2022/04/09 04:08:25;;;;;;;8.63;2.15;;;0.40;99.90;;;;;;5046640;28;20953;-88
2022/04/09 04:10:53;;;;;;;8.57;2.50;;;0.30;99.90;;;;;;5045180;28;20392;-88
2022/04/09 04:13:24;;;;;;;9.73;2.40;;;0.40;99.90;;;;;;5050376;28;20805;-87
2022/04/09 04:15:55;;;;;;;7.50;2.30;;;0.50;99.90;;;;;;5049914;28;20405;-87
2022/04/09 04:18:23;;;;;;;6.93;2.33;;;0.50;99.90;;;;;;5045269;28;20395;-87
2022/04/09 04:20:55;;;;;;;7.20;2.30;;;0.40;99.90;;;;;;5037435;28;20893;-87
2022/04/09 04:23:23;;;;;;;6.93;2.05;;;0.40;99.90;;;;;;5053242;28;20411;-88
2022/04/09 04:25:53;;;;;;;8.77;2.30;;;0.40;99.90;;;;;;5053402;28;20407;-87
2022/04/09 04:28:22;;;;;;;9.48;2.67;;;0.40;99.90;;;;;;5053180;28;20495;-87
2022/04/09 04:30:50;;;;;;;7.25;2.28;;;0.40;99.90;;;;;;5045944;28;20894;-87
2022/04/09 04:33:19;;;;;;;7.93;2.40;;;0.40;99.90;;;;;;5036561;28;20495;-88
2022/04/09 04:35:53;;;;;;;8.37;2.60;;;0.30;99.90;;;;;;5052512;28;20411;-87
2022/04/09 04:38:24;;;;;;;9.13;2.30;;;0.40;99.90;;;;;;5037049;28;20410;-87
2022/04/09 04:40:55;;;;;;;9.32;2.50;;;0.40;99.90;;;;;;5052867;28;20391;-86
2022/04/09 04:43:25;;;;;;;8.88;2.00;;;0.40;99.90;;;;;;5052847;28;20491;-88
2022/04/09 04:45:54;;;;;;;8.23;2.17;;;0.40;99.90;;;;;;5052971;28;20404;-87
2022/04/09 04:48:22;;;;;;;7.07;2.20;;;0.50;99.90;;;;;;5052833;28;20495;-87
2022/04/09 04:50:51;;;;;;;6.55;2.00;;;0.50;99.90;;;;;;5052757;28;20607;-88
2022/04/09 04:53:19;;;;;;;7.65;2.30;;;0.50;99.90;;;;;;5052596;28;20396;-87
2022/04/09 04:55:55;;;;;;;6.40;2.13;;;0.50;99.90;;;;;;5052517;28;20403;-87
2022/04/09 04:58:30;;;;;;;8.27;3.00;;;0.50;99.90;;;;;;5052738;28;20989;-87
2022/04/09 05:01:02;;;;;;;8.48;2.28;;;0.40;99.90;;;;;;5036524;28;20817;-87
2022/04/09 05:03:37;;;;;;;8.30;2.53;;;0.50;99.90;;;;;;5048797;28;20405;-87
2022/04/09 05:06:19;;;;;;;8.10;2.50;;;0.40;99.90;;;;;;5039903;28;20904;-87
2022/04/09 05:08:48;;;;;;;8.93;2.30;;;0.40;99.90;;;;;;5049338;28;20406;-87
2022/04/09 05:11:24;;;;;;;8.15;2.15;;;0.50;99.90;;;;;;5036791;28;20391;-86
2022/04/09 05:13:52;;;;;;;10.10;2.37;;;0.40;99.90;;;;;;5053601;28;20387;-87
2022/04/09 05:16:22;;;;;;;7.53;2.10;;;0.50;99.90;;;;;;5052348;28;20951;-87
2022/04/09 05:19:02;;;;;;;7.50;2.40;;;0.50;99.90;;;;;;5052537;28;20395;-89
2022/04/09 05:21:32;;;;;;;7.32;2.40;;;0.50;99.90;;;;;;5048949;28;20498;-87
2022/04/09 05:24:00;;;;;;;5.93;2.28;;;0.50;99.90;;;;;;5037636;28;20398;-87
2022/04/09 05:26:28;;;;;;;7.25;2.22;;;0.60;99.90;;;;;;5044330;28;20403;-87
2022/04/09 05:28:56;;;;;;;6.37;2.27;;;0.60;99.90;;;;;;5052018;28;20388;-86
2022/04/09 05:31:29;;;;;;;8.25;2.05;;;0.70;99.90;;;;;;5035995;28;20398;-87
2022/04/09 05:33:57;;;;;;;5.47;1.92;;;0.70;99.90;;;;;;5052105;28;20479;-88
2022/04/09 05:36:28;;;;;;;7.88;2.30;;;0.70;99.90;;;;;;5051936;28;20427;-88
2022/04/09 05:38:59;;;;;;;7.60;2.30;;;0.80;99.90;;;;;;5052094;28;20466;-88
2022/04/09 05:41:30;;;;;;;7.82;1.90;;;0.80;99.90;;;;;;5048678;28;20799;-87
2022/04/09 05:43:58;;;;;;;7.00;1.95;;;0.90;99.90;;;;;;5040077;28;20407;-88
2022/04/09 05:46:26;;;;;;;5.97;1.98;;;0.90;99.90;;;;;;5052883;28;20486;-86
2022/04/09 05:48:55;;;;;;;8.40;2.30;;;0.90;99.90;;;;;;5051683;28;20392;-87
2022/04/09 05:51:24;;;;;;;8.63;2.35;;;1.00;99.90;;;;;;5051514;28;20487;-88
2022/04/09 05:53:55;;;;;;;7.53;2.17;;;1.00;99.90;;;;;;5051409;28;20399;-87
2022/04/09 05:56:26;;;;;;;7.05;1.95;;;1.00;99.90;;;;;;5049389;28;20948;-87
2022/04/09 05:58:54;;;;;;;6.72;2.10;;;1.10;99.90;;;;;;5046060;28;20909;-87
2022/04/09 06:01:42;;;;;;;7.72;2.50;;;1.10;99.90;;;;;;5051338;28;20403;-86
2022/04/09 06:04:11;;;;;;;7.47;2.10;;;1.10;99.90;;;;;;5040745;28;20414;-87
2022/04/09 06:06:40;;;;;;;6.83;2.33;;;1.20;99.90;;;;;;5060222;28;20407;-88
2022/04/09 06:09:11;;;;;;;9.02;2.40;;;1.20;99.90;;;;;;5053671;28;20392;-88
2022/04/09 06:11:48;;;;;;;8.48;2.63;;;1.20;99.90;;;;;;5052590;28;20404;-87
2022/04/09 06:14:21;;;;;;;8.75;2.13;;;1.20;99.90;;;;;;5056745;28;20404;-87
2022/04/09 06:16:50;;;;;;;7.13;2.03;;;1.20;99.90;;;;;;5068931;28;20480;-88
2022/04/09 06:19:18;;;;;;;5.78;1.83;;;1.30;99.90;;;;;;5054619;28;20409;-86
2022/04/09 06:21:46;;;;;;;8.00;2.20;;;1.30;99.90;;;;;;5058910;28;20398;-87
2022/04/09 06:24:17;;;;;;;8.93;2.50;;;1.30;99.90;;;;;;5062382;28;20480;-87
2022/04/09 06:26:45;;;;;;;8.63;2.22;;;1.40;99.90;;;;;;5057789;28;20394;-87
2022/04/09 06:29:13;;;;;;;6.25;2.17;;;1.40;99.90;;;;;;5049225;28;20412;-87
2022/04/09 06:31:47;;;;;;;8.77;2.45;;;1.50;99.90;;;;;;5074226;28;20789;-87
2022/04/09 06:34:17;;;;;;;6.85;2.20;;;1.50;99.90;;;;;;5074204;28;20770;-87
2022/04/09 06:36:46;;;;;;;7.93;2.22;;;1.60;99.90;;;;;;5073891;28;20399;-87
2022/04/09 06:39:16;;;;;;;8.07;2.30;;;1.70;99.90;;;;;;5073680;28;20453;-87
2022/04/09 06:41:44;;;;;;;9.37;2.53;;;1.80;99.90;;;;;;5070752;28;20473;-88
2022/04/09 06:44:18;;;;;;;9.30;2.47;;;1.80;99.90;;;;;;5061542;28;20441;-87
2022/04/09 06:47:08;;;;;;;8.60;2.70;;;1.80;99.90;;;;;;5054231;28;20413;-88
2022/04/09 06:49:42;;;;;;;4.72;2.33;;;2.00;99.90;;;;;;5075236;28;20404;-88
2022/04/09 06:52:20;;;;;;;6.90;2.40;;;2.00;99.90;;;;;;5074001;28;20486;-87
2022/04/09 06:55:11;;;;;;;8.82;2.70;;;2.10;99.90;;;;;;5046297;28;20912;-88
2022/04/09 06:57:41;;;;;;;7.70;2.60;;;2.20;99.90;;;;;;5068155;28;20472;-88
2022/04/09 07:00:14;;;;;;;6.88;2.50;;;2.20;99.90;;;;;;5063956;28;20430;-89
2022/04/09 07:02:42;;;;;;;8.63;2.33;;;2.20;99.90;;;;;;5086364;28;20475;-87
2022/04/09 07:05:10;;;;;;;6.82;2.70;;;2.20;99.90;;;;;;5050369;28;20409;-87
2022/04/09 07:07:38;;;;;;;9.13;2.85;;;2.20;99.90;;;;;;5047110;28;20397;-87
2022/04/09 07:10:09;;;;;;;7.07;2.50;;;2.30;99.90;;;;;;5024470;28;20559;-88
2022/04/09 07:12:38;;;;;;;7.87;2.50;;;2.40;99.90;;;;;;5040901;28;20489;-89
2022/04/09 07:15:06;;;;;;;7.13;2.50;;;2.40;99.90;;;;;;5025328;28;20481;-89
2022/04/09 07:17:34;;;;;;;5.87;2.00;;;2.50;99.90;;;;;;5050862;28;20410;-89
2022/04/09 07:20:07;;;;;;;8.02;2.40;;;2.60;99.90;;;;;;5050879;28;20463;-89
2022/04/09 07:22:36;;;;;;;8.13;2.30;;;2.70;99.90;;;;;;5048036;28;20398;-88
2022/04/09 07:25:05;;;;;;;7.40;1.80;;;2.70;99.90;;;;;;5049315;28;20386;-89
2022/04/09 07:27:44;;;;;;;7.38;2.40;;;2.80;99.90;;;;;;5047310;28;20891;-90
2022/04/09 07:30:18;;;;;;;6.97;2.15;;;2.80;99.90;;;;;;5034347;28;20402;-89
2022/04/09 07:32:47;;;;;;;6.13;2.27;;;2.80;99.90;;;;;;5050751;28;20736;-89
2022/04/09 07:35:16;;;;;;;9.50;2.25;;;2.90;99.90;;;;;;5050613;28;20392;-89
2022/04/09 07:37:49;;;;;;;6.35;2.38;;;3.00;99.90;;;;;;5047298;28;20400;-89
2022/04/09 07:40:19;;;;;;;6.97;2.27;;;3.10;99.90;;;;;;5041451;28;20406;-89
2022/04/09 07:42:47;;;;;;;7.15;1.90;;;3.10;99.90;;;;;;5034271;28;20404;-89
2022/04/09 07:45:16;;;;;;;6.77;1.97;;;3.00;99.90;;;;;;5050367;28;20858;-89
2022/04/09 07:47:44;;;;;;;5.50;2.30;;;3.10;99.90;;;;;;5049777;28;20418;-88
2022/04/09 07:50:13;;;;;;;8.18;2.38;;;3.20;99.90;;;;;;5054120;28;20410;-91
2022/04/09 07:52:44;;;;;;;5.28;2.47;;;3.20;99.90;;;;;;5054029;28;20408;-89
2022/04/09 07:55:17;;;;;;;7.07;2.20;;;3.20;99.90;;;;;;5053809;28;20449;-89
2022/04/09 07:57:52;;;;;;;7.72;2.10;;;3.40;99.90;;;;;;5054039;28;20541;-88
2022/04/09 08:00:21;;;;;;;6.93;2.10;;;3.50;99.90;;;;;;5054088;28;20388;-89
2022/04/09 08:02:49;;;;;;;7.38;2.20;;;3.40;99.90;;;;;;5049241;28;20431;-89
2022/04/09 08:05:18;;;;;;;8.73;2.40;;;3.50;99.90;;;;;;5045445;28;20924;-88
2022/04/09 08:07:47;;;;;;;6.80;2.33;;;3.60;99.90;;;;;;5057391;28;20426;-88
2022/04/09 08:10:16;;;;;;;8.55;2.50;;;3.70;99.90;;;;;;5056339;28;20448;-87
2022/04/09 08:12:46;;;;;;;10.13;2.57;;;3.60;99.90;;;;;;5059631;28;20388;-88
2022/04/09 08:15:14;;;;;;;7.30;2.30;;;3.70;99.90;;;;;;5070265;28;20388;-87
2022/04/09 08:17:47;;;;;;;6.37;2.30;;;4.00;99.90;;;;;;5072496;28;20405;-87
2022/04/09 08:20:19;;;;;;;7.35;2.15;;;4.00;99.90;;;;;;5059098;28;20437;-87
2022/04/09 08:22:48;;;;;;;7.38;2.42;;;3.90;99.90;;;;;;5069266;28;20440;-87
2022/04/09 08:25:16;;;;;;;7.63;2.60;;;3.90;99.90;;;;;;5073176;28;20792;-88
2022/04/09 08:27:45;;;;;;;8.23;2.70;;;4.10;99.90;;;;;;5072950;28;20402;-86
2022/04/09 08:30:14;;;;;;;8.88;2.63;;;4.10;99.90;;;;;;5053456;28;20404;-87
2022/04/09 08:32:42;;;;;;;6.63;2.23;;;4.10;99.90;;;;;;5052889;28;20384;-87
2022/04/09 08:35:09;;;;;;;8.13;2.38;;;4.10;99.90;;;;;;5068580;28;20384;-87
2022/04/09 08:37:39;;;;;;;5.03;1.70;;;4.10;99.90;;;;;;5071083;28;20391;-86
2022/04/09 08:40:09;;;;;;;7.50;2.50;;;4.40;99.90;;;;;;5069498;28;20384;-87
2022/04/09 08:42:37;;;;;;;7.10;2.10;;;4.30;99.90;;;;;;5066047;28;20480;-87
2022/04/09 08:45:05;;;;;;;5.65;2.13;;;4.40;99.90;;;;;;5072792;28;20744;-87
2022/04/09 08:47:35;;;;;;;10.23;2.83;;;4.50;99.90;;;;;;5073813;28;20406;-87
2022/04/09 08:50:03;;;;;;;8.45;2.22;;;4.60;99.90;;;;;;5052673;28;20395;-88
2022/04/09 08:52:31;;;;;;;7.15;2.53;;;4.70;99.90;;;;;;5052625;28;20886;-86
2022/04/09 08:54:59;;;;;;;7.50;2.55;;;4.60;99.90;;;;;;5053963;28;20383;-86
2022/04/09 08:57:27;;;;;;;9.75;2.42;;;4.70;99.90;;;;;;5057228;28;20414;-86
2022/04/09 08:59:55;;;;;;;5.85;2.10;;;4.70;99.90;;;;;;5072183;28;20432;-86
2022/04/09 09:02:24;;;;;;;5.28;1.90;;;4.90;99.90;;;;;;5072180;28;20967;-87
2022/04/09 09:04:52;;;;;;;5.45;1.90;;;5.00;99.90;;;;;;5073317;28;20394;-86
2022/04/09 09:07:24;;;;;;;6.00;2.00;;;5.00;99.90;;;;;;5073313;28;20452;-86
2022/04/09 09:09:52;;;;;;;5.63;1.80;;;5.10;99.90;;;;;;5068824;28;20416;-86
2022/04/09 09:12:29;;;;;;;6.28;2.03;;;5.20;99.90;;;;;;5064253;28;20436;-87
2022/04/09 09:14:58;;;;;;;6.47;2.03;;;5.20;99.90;;;;;;5072156;28;20409;-88
2022/04/09 09:17:28;;;;;;;5.97;1.90;;;5.20;99.90;;;;;;5073392;28;20390;-86
2022/04/09 09:19:56;;;;;;;4.43;1.83;;;5.10;99.90;;;;;;5072287;28;20519;-87
2022/04/09 09:22:42;;;;;;;6.78;2.05;;;5.10;99.90;;;;;;5072095;28;20390;-86
2022/04/09 09:25:11;;;;;;;7.38;1.90;;;5.00;99.90;;;;;;5070153;28;20472;-88
2022/04/09 09:27:43;;;;;;;5.80;2.00;;;5.00;99.90;;;;;;5072029;28;20451;-88
2022/04/09 09:30:13;;;;;;;5.95;1.88;;;5.10;99.90;;;;;;5063503;28;20426;-88
2022/04/09 09:32:44;;;;;;;6.07;1.83;;;5.00;99.90;;;;;;5071502;28;20406;-87
2022/04/09 09:35:13;;;;;;;6.57;2.17;;;5.00;99.90;;;;;;5088871;28;20386;-88
2022/04/09 09:37:41;;;;;;;6.17;2.03;;;5.30;99.90;;;;;;5087553;28;20545;-89
2022/04/09 09:40:10;;;;;;;6.10;1.88;;;5.20;99.90;;;;;;5065570;28;20410;-90
2022/04/09 09:42:39;;;;;;;7.57;1.80;;;5.20;99.90;;;;;;5071323;28;20903;-88
2022/04/09 09:45:07;;;;;;;5.10;1.52;;;5.30;99.90;;;;;;5070038;28;20424;-88
2022/04/09 09:47:35;;;;;;;6.75;1.73;;;5.40;99.90;;;;;;5088189;28;20900;-89
2022/04/09 09:50:03;;;;;;;5.13;1.60;;;5.50;99.90;;;;;;5071463;28;20397;-89
2022/04/09 09:52:34;;;;;;;6.85;1.70;;;5.60;99.90;;;;;;5059275;28;20400;-89
2022/04/09 09:55:06;;;;;;;4.28;1.50;;;5.60;99.90;;;;;;5050570;28;20973;-89
2022/04/09 09:57:35;;;;;;;5.75;1.70;;;5.40;99.90;;;;;;5035348;28;20388;-88
2022/04/09 10:00:10;;;;;;;7.55;1.80;;;5.40;99.90;;;;;;5061628;28;20751;-89
2022/04/09 10:02:39;;;;;;;7.82;1.83;;;5.60;99.90;;;;;;5071608;28;20406;-89
2022/04/09 10:05:08;;;;;;;6.72;1.50;;;5.70;99.90;;;;;;5065390;28;20886;-88
2022/04/09 10:07:36;;;;;;;5.75;1.55;;;6.00;99.90;;;;;;5052694;28;20450;-88
2022/04/09 10:10:06;;;;;;;5.73;1.70;;;6.00;99.90;;;;;;5051438;28;20392;-87
2022/04/09 10:12:39;;;;;;;5.03;2.13;;;5.80;99.90;;;;;;5050849;28;20898;-88
2022/04/09 10:15:08;;;;;;;6.03;1.63;;;5.80;99.90;;;;;;5051273;28;20400;-88
2022/04/09 10:17:38;;;;;;;6.80;2.00;;;6.10;99.90;;;;;;5051475;28;20478;-89
2022/04/09 10:20:07;;;;;;;10.33;2.30;;;6.10;99.90;;;;;;5051209;28;20400;-88
2022/04/09 10:22:39;;;;;;;7.35;2.30;;;6.20;99.90;;;;;;5051596;28;20865;-88
2022/04/09 10:25:07;;;;;;;5.87;1.73;;;6.10;99.90;;;;;;5048745;28;20942;-90
2022/04/09 10:27:44;;;;;;;5.68;2.03;;;6.20;99.90;;;;;;5047753;28;20485;-88
2022/04/09 10:30:14;;;;;;;6.68;1.88;;;6.40;99.90;;;;;;5041156;28;20390;-89
2022/04/09 10:32:55;;;;;;;4.53;1.90;;;6.50;99.90;;;;;;5050978;28;20400;-88
2022/04/09 10:35:40;;;;;;;5.95;2.10;;;6.40;99.90;;;;;;5050935;28;20423;-89
2022/04/09 10:38:17;;;;;;;4.70;1.95;;;6.20;99.90;;;;;;5051112;28;20487;-88
2022/04/09 10:40:55;;;;;;;6.25;1.92;;;6.00;99.90;;;;;;5051097;28;20575;-89
2022/04/09 10:43:23;;;;;;;5.22;1.80;;;5.90;99.90;;;;;;5051219;28;20785;-89
2022/04/09 10:48:42;;;;;;;5.45;1.90;;;5.90;99.90;;;;;;5050750;28;20423;-88
2022/04/09 10:51:12;;;;;;;5.05;1.95;;;6.00;99.90;;;;;;5050957;28;20410;-88
2022/04/09 10:53:40;;;;;;;6.95;2.13;;;5.90;99.90;;;;;;5050551;28;20388;-87
2022/04/09 10:56:21;;;;;;;5.93;2.00;;;6.00;99.90;;;;;;5050875;28;20388;-87
2022/04/09 10:59:10;;;;;;;7.47;2.60;;;6.00;99.90;;;;;;5047431;28;20451;-88
2022/04/09 11:01:47;;;;;;;5.35;1.88;;;6.00;99.90;;;;;;5019814;28;20392;-87
2022/04/09 11:07:14;;;;;;;7.97;2.30;;;6.20;99.90;;;;;;5050465;28;20408;-87
2022/04/09 11:09:51;;;;;;;6.68;2.25;;;6.20;99.90;;;;;;5050575;28;20441;-88
2022/04/09 11:12:22;;;;;;;6.90;2.30;;;6.20;99.90;;;;;;5050449;28;20793;-87
2022/04/09 11:15:00;;;;;;;4.53;2.33;;;6.10;99.90;;;;;;5050759;28;20857;-88
2022/04/09 11:17:43;;;;;;;9.60;3.03;;;6.00;99.90;;;;;;5031230;28;20389;-89
2022/04/09 11:20:26;;;;;;;8.23;3.10;;;6.00;99.90;;;;;;5057091;28;20384;-88
2022/04/09 11:22:57;;;;;;;5.75;2.00;;;5.90;99.90;;;;;;5066864;28;20830;-88
2022/04/09 11:25:27;;;;;;;5.55;2.10;;;5.70;99.90;;;;;;5070921;28;20394;-87
2022/04/09 11:28:06;;;;;;;4.97;2.37;;;5.60;99.90;;;;;;5055563;28;20997;-87
2022/04/09 11:30:34;;;;;;;5.25;2.15;;;5.50;99.90;;;;;;5042140;28;20396;-88
2022/04/09 11:33:02;;;;;;;4.65;2.25;;;5.40;99.90;;;;;;5031058;28;20397;-87
2022/04/09 11:35:35;;;;;;;4.83;1.70;;;5.40;99.90;;;;;;5035126;28;20416;-88
2022/04/09 11:38:10;;;;;;;3.80;1.80;;;5.40;99.90;;;;;;5034649;28;20389;-89
2022/04/09 11:40:46;;;;;;;3.53;1.65;;;5.40;99.90;;;;;;5044565;28;20393;-88
2022/04/09 11:43:17;;;;;;;3.15;1.13;;;5.60;99.90;;;;;;5068970;28;20402;-88
2022/04/09 11:45:46;;;;;;;3.10;1.42;;;5.80;99.90;;;;;;5070588;28;20388;-88
2022/04/09 11:48:19;;;;;;;3.17;1.35;;;5.90;99.90;;;;;;5054229;28;20969;-88
2022/04/09 11:50:48;;;;;;;2.85;1.20;;;6.10;99.90;;;;;;5054252;28;20941;-88
2022/04/09 11:53:23;;;;;;;2.97;1.30;;;6.20;99.90;;;;;;5037610;28;20472;-88
2022/04/09 11:56:03;;;;;;;1.90;1.30;;;6.30;99.90;;;;;;5053767;28;20394;-88
2022/04/09 11:58:33;;;;;;;3.03;1.35;;;6.10;99.90;;;;;;5070944;28;20394;-88
2022/04/09 12:01:01;;;;;;;3.80;1.75;;;6.00;99.90;;;;;;5048207;28;20422;-87
2022/04/09 12:03:29;;;;;;;3.38;1.60;;;5.80;99.90;;;;;;5065382;28;20468;-88
2022/04/09 12:06:01;;;;;;;4.77;1.53;;;5.70;99.90;;;;;;5080243;28;20427;-88
2022/04/09 12:08:31;;;;;;;3.08;1.50;;;5.60;99.90;;;;;;5077246;28;20404;-87
2022/04/09 12:11:09;;;;;;;3.60;1.60;;;5.60;99.90;;;;;;5076928;28;20399;-86
2022/04/09 12:13:39;;;;;;;5.50;1.55;;;5.50;99.90;;;;;;5043676;28;20435;-88
2022/04/09 12:16:13;;;;;;;4.18;1.60;;;5.40;99.90;;;;;;5060460;28;20386;-87
2022/04/09 12:18:41;;;;;;;6.55;2.05;;;5.10;99.90;;;;;;5058753;28;20451;-87
2022/04/09 12:21:20;;;;;;;3.03;1.70;;;5.00;99.90;;;;;;5066575;28;20471;-87
2022/04/09 12:24:02;;;;;;;4.28;2.13;;;4.60;99.90;;;;;;5076794;28;20376;-86
2022/04/09 12:26:36;;;;;;;4.15;1.90;;;4.10;99.90;;;;;;5076715;28;20388;-86
2022/04/09 12:29:19;;;;;;;3.38;1.92;;;4.00;99.90;;;;;;5075825;28;20446;-87
2022/04/09 12:31:50;;;;;;;5.85;2.28;;;4.00;99.90;;;;;;5070815;28;20396;-88
2022/04/09 12:34:20;;;;;;;4.20;1.83;;;4.00;99.90;;;;;;5092396;28;20384;-87
2022/04/09 12:37:06;;;;;;;5.40;1.80;;;4.00;99.90;;;;;;5060101;28;20471;-87
2022/04/09 12:39:36;;;;;;;4.75;2.08;;;4.00;99.90;;;;;;5077010;28;20377;-86
2022/04/09 12:42:04;;;;;;;3.75;1.80;;;3.90;99.90;;;;;;5060155;28;20851;-87
2022/04/09 12:44:36;;;;;;;3.60;1.60;;;3.90;99.90;;;;;;5093393;28;20466;-87
2022/04/09 12:47:05;;;;;;;3.47;1.88;;;3.70;99.90;;;;;;5076443;28;20401;-89
2022/04/09 12:49:34;;;;;;;4.03;2.00;;;3.50;99.90;;;;;;5093245;28;20426;-89
2022/04/09 12:52:03;;;;;;;5.53;2.45;;;3.80;99.90;;;;;;5094316;28;20385;-89
2022/04/09 12:54:32;;;;;;;4.53;2.70;;;4.00;99.90;;;;;;5093294;28;20457;-87
2022/04/09 12:57:11;;;;;;;4.75;2.10;;;4.40;99.90;;;;;;5075757;28;20387;-89
2022/04/09 12:59:39;;;;;;;4.30;2.00;;;4.70;99.90;;;;;;5094141;28;20380;-89
2022/04/09 13:02:08;;;;;;;7.45;2.00;;;5.00;99.90;;;;;;5059557;28;20816;-89
2022/04/09 13:04:35;;;;;;;5.53;2.63;;;5.20;99.90;;;;;;5075835;28;20385;-90
2022/04/09 13:07:04;;;;;;;4.53;2.22;;;5.50;99.90;;;;;;5075912;28;20409;-91
2022/04/09 13:09:31;;;;;;;3.53;1.70;;;5.70;99.90;;;;;;5093082;28;20410;-90
2022/04/09 13:11:59;;;;;;;2.45;1.55;;;5.90;99.90;;;;;;5076224;28;20471;-89
2022/04/09 13:14:27;;;;;;;4.03;1.75;;;6.20;99.90;;;;;;5076149;28;20450;-89
2022/04/09 13:17:01;;;;;;;5.57;1.83;;;6.30;99.90;;;;;;5075755;28;20400;-90
2022/04/09 13:19:31;;;;;;;3.40;1.57;;;6.20;99.90;;;;;;5056469;28;20935;-90